sensor_id;sensor_type;location;lat;lon;timestamp;P1;durP1;ratioP1;P2;durP2;ratioP2
12848;SDS011;6493;50.928;7.172;2023-09-30T00:03:35;0.73;;;0.60;;
12848;SDS011;6493;50.928;7.172;2023-09-30T00:08:38;2.07;;;0.70;;
12848;SDS011;6493;50.928;7.172;2023-09-30T00:13:43;1.00;;;0.90;;
12848;SDS011;6493;50.928;7.172;2023-09-30T00:18:49;0.93;;;0.80;;
12848;SDS011;6493;50.928;7.172;2023-09-30T00:23:53;1.13;;;0.70;;
12848;SDS011;6493;50.928;7.172;2023-09-30T00:28:57;1.30;;;0.70;;
12848;SDS011;6493;50.928;7.172;2023-09-30T00:34:02;0.80;;;0.50;;
12848;SDS011;6493;50.928;7.172;2023-09-30T00:39:06;0.80;;;0.70;;
12848;SDS011;6493;50.928;7.172;2023-09-30T00:44:11;1.70;;;1.00;;
12848;SDS011;6493;50.928;7.172;2023-09-30T00:49:16;1.07;;;0.97;;
12848;SDS011;6493;50.928;7.172;2023-09-30T00:54:20;1.87;;;1.03;;
12848;SDS011;6493;50.928;7.172;2023-09-30T00:59:24;1.87;;;0.87;;
12848;SDS011;6493;50.928;7.172;2023-09-30T01:04:30;1.50;;;0.90;;
12848;SDS011;6493;50.928;7.172;2023-09-30T01:09:33;1.07;;;0.80;;
12848;SDS011;6493;50.928;7.172;2023-09-30T01:14:38;1.10;;;0.70;;
12848;SDS011;6493;50.928;7.172;2023-09-30T01:19:44;0.90;;;0.67;;
12848;SDS011;6493;50.928;7.172;2023-09-30T01:24:50;0.87;;;0.70;;
12848;SDS011;6493;50.928;7.172;2023-09-30T01:29:53;1.57;;;1.00;;
12848;SDS011;6493;50.928;7.172;2023-09-30T01:34:57;1.90;;;1.03;;
12848;SDS011;6493;50.928;7.172;2023-09-30T01:40:02;1.77;;;1.03;;
12848;SDS011;6493;50.928;7.172;2023-09-30T01:45:09;0.80;;;0.73;;
12848;SDS011;6493;50.928;7.172;2023-09-30T01:50:13;0.50;;;0.50;;
12848;SDS011;6493;50.928;7.172;2023-09-30T01:55:18;0.97;;;0.47;;
12848;SDS011;6493;50.928;7.172;2023-09-30T02:00:22;0.30;;;0.30;;
12848;SDS011;6493;50.928;7.172;2023-09-30T02:05:28;0.40;;;0.30;;
12848;SDS011;6493;50.928;7.172;2023-09-30T02:10:34;0.90;;;0.70;;
12848;SDS011;6493;50.928;7.172;2023-09-30T02:15:39;0.63;;;0.40;;
12848;SDS011;6493;50.928;7.172;2023-09-30T02:20:43;0.87;;;0.40;;
12848;SDS011;6493;50.928;7.172;2023-09-30T02:25:49;0.50;;;0.50;;
12848;SDS011;6493;50.928;7.172;2023-09-30T02:30:52;0.53;;;0.40;;
12848;SDS011;6493;50.928;7.172;2023-09-30T02:35:56;0.47;;;0.47;;
12848;SDS011;6493;50.928;7.172;2023-09-30T02:41:01;0.50;;;0.40;;
12848;SDS011;6493;50.928;7.172;2023-09-30T02:46:04;0.40;;;0.40;;
12848;SDS011;6493;50.928;7.172;2023-09-30T02:51:09;0.70;;;0.57;;
12848;SDS011;6493;50.928;7.172;2023-09-30T02:56:15;1.10;;;0.53;;
12848;SDS011;6493;50.928;7.172;2023-09-30T03:01:19;1.77;;;0.70;;
12848;SDS011;6493;50.928;7.172;2023-09-30T03:06:24;2.07;;;0.70;;
12848;SDS011;6493;50.928;7.172;2023-09-30T03:11:29;2.43;;;0.70;;
12848;SDS011;6493;50.928;7.172;2023-09-30T03:16:33;0.90;;;0.60;;
12848;SDS011;6493;50.928;7.172;2023-09-30T03:21:40;1.80;;;0.87;;
12848;SDS011;6493;50.928;7.172;2023-09-30T03:26:45;1.13;;;0.80;;
12848;SDS011;6493;50.928;7.172;2023-09-30T03:31:49;1.13;;;0.90;;
12848;SDS011;6493;50.928;7.172;2023-09-30T03:36:53;1.00;;;0.90;;
12848;SDS011;6493;50.928;7.172;2023-09-30T03:42:02;1.00;;;0.90;;
12848;SDS011;6493;50.928;7.172;2023-09-30T03:47:06;0.63;;;0.63;;
12848;SDS011;6493;50.928;7.172;2023-09-30T03:52:11;0.97;;;0.73;;
12848;SDS011;6493;50.928;7.172;2023-09-30T03:57:18;0.60;;;0.50;;
12848;SDS011;6493;50.928;7.172;2023-09-30T04:02:22;0.40;;;0.40;;
12848;SDS011;6493;50.928;7.172;2023-09-30T04:07:26;0.50;;;0.50;;
12848;SDS011;6493;50.928;7.172;2023-09-30T04:12:31;0.50;;;0.50;;
12848;SDS011;6493;50.928;7.172;2023-09-30T04:17:35;0.37;;;0.37;;
12848;SDS011;6493;50.928;7.172;2023-09-30T04:22:40;0.40;;;0.40;;
12848;SDS011;6493;50.928;7.172;2023-09-30T04:27:46;0.40;;;0.40;;
12848;SDS011;6493;50.928;7.172;2023-09-30T04:32:51;0.87;;;0.30;;
12848;SDS011;6493;50.928;7.172;2023-09-30T04:37:55;0.67;;;0.50;;
12848;SDS011;6493;50.928;7.172;2023-09-30T04:43:00;0.47;;;0.40;;
12848;SDS011;6493;50.928;7.172;2023-09-30T04:48:03;0.40;;;0.33;;
12848;SDS011;6493;50.928;7.172;2023-09-30T04:53:07;2.70;;;1.00;;
12848;SDS011;6493;50.928;7.172;2023-09-30T04:58:12;0.40;;;0.40;;
12848;SDS011;6493;50.928;7.172;2023-09-30T05:03:16;0.23;;;0.23;;
12848;SDS011;6493;50.928;7.172;2023-09-30T05:08:22;0.50;;;0.50;;
12848;SDS011;6493;50.928;7.172;2023-09-30T05:13:27;1.17;;;0.30;;
12848;SDS011;6493;50.928;7.172;2023-09-30T05:18:31;0.23;;;0.23;;
12848;SDS011;6493;50.928;7.172;2023-09-30T05:23:34;0.40;;;0.40;;
12848;SDS011;6493;50.928;7.172;2023-09-30T05:28:39;1.60;;;0.30;;
12848;SDS011;6493;50.928;7.172;2023-09-30T05:33:44;0.63;;;0.40;;
12848;SDS011;6493;50.928;7.172;2023-09-30T05:38:48;4.43;;;0.30;;
12848;SDS011;6493;50.928;7.172;2023-09-30T05:43:53;0.67;;;0.30;;
12848;SDS011;6493;50.928;7.172;2023-09-30T05:48:57;0.37;;;0.37;;
12848;SDS011;6493;50.928;7.172;2023-09-30T05:54:01;1.27;;;0.37;;
12848;SDS011;6493;50.928;7.172;2023-09-30T05:59:07;5.47;;;0.57;;
12848;SDS011;6493;50.928;7.172;2023-09-30T06:04:10;0.30;;;0.30;;
12848;SDS011;6493;50.928;7.172;2023-09-30T06:09:14;0.80;;;0.40;;
12848;SDS011;6493;50.928;7.172;2023-09-30T06:14:19;0.73;;;0.40;;
12848;SDS011;6493;50.928;7.172;2023-09-30T06:19:23;1.97;;;0.40;;
12848;SDS011;6493;50.928;7.172;2023-09-30T06:24:27;0.80;;;0.43;;
12848;SDS011;6493;50.928;7.172;2023-09-30T06:29:32;2.77;;;0.50;;
12848;SDS011;6493;50.928;7.172;2023-09-30T06:34:36;2.30;;;0.50;;
12848;SDS011;6493;50.928;7.172;2023-09-30T06:39:40;0.50;;;0.50;;
12848;SDS011;6493;50.928;7.172;2023-09-30T06:44:45;2.40;;;0.67;;
12848;SDS011;6493;50.928;7.172;2023-09-30T06:49:49;0.63;;;0.63;;
12848;SDS011;6493;50.928;7.172;2023-09-30T06:54:53;0.67;;;0.67;;
12848;SDS011;6493;50.928;7.172;2023-09-30T06:59:59;0.60;;;0.60;;
12848;SDS011;6493;50.928;7.172;2023-09-30T07:05:05;0.60;;;0.60;;
12848;SDS011;6493;50.928;7.172;2023-09-30T07:10:10;0.80;;;0.70;;
12848;SDS011;6493;50.928;7.172;2023-09-30T07:15:15;2.50;;;0.80;;
12848;SDS011;6493;50.928;7.172;2023-09-30T07:20:19;1.57;;;0.63;;
12848;SDS011;6493;50.928;7.172;2023-09-30T07:25:24;0.50;;;0.50;;
12848;SDS011;6493;50.928;7.172;2023-09-30T07:30:29;0.97;;;0.87;;
12848;SDS011;6493;50.928;7.172;2023-09-30T07:35:33;1.30;;;1.20;;
12848;SDS011;6493;50.928;7.172;2023-09-30T07:40:37;1.50;;;1.07;;
12848;SDS011;6493;50.928;7.172;2023-09-30T07:45:42;1.27;;;1.00;;
12848;SDS011;6493;50.928;7.172;2023-09-30T07:50:45;0.73;;;0.73;;
12848;SDS011;6493;50.928;7.172;2023-09-30T07:55:49;2.20;;;1.00;;
12848;SDS011;6493;50.928;7.172;2023-09-30T08:00:54;1.80;;;1.20;;
12848;SDS011;6493;50.928;7.172;2023-09-30T08:05:58;1.17;;;1.07;;
12848;SDS011;6493;50.928;7.172;2023-09-30T08:11:01;1.17;;;1.07;;
12848;SDS011;6493;50.928;7.172;2023-09-30T08:16:07;1.17;;;1.00;;
12848;SDS011;6493;50.928;7.172;2023-09-30T08:21:12;2.00;;;1.83;;
12848;SDS011;6493;50.928;7.172;2023-09-30T08:26:16;1.50;;;1.20;;
12848;SDS011;6493;50.928;7.172;2023-09-30T08:31:21;2.70;;;2.27;;
12848;SDS011;6493;50.928;7.172;2023-09-30T08:36:26;1.77;;;1.63;;
12848;SDS011;6493;50.928;7.172;2023-09-30T08:41:30;1.50;;;1.40;;
12848;SDS011;6493;50.928;7.172;2023-09-30T08:46:37;1.73;;;1.47;;
12848;SDS011;6493;50.928;7.172;2023-09-30T08:51:40;1.53;;;1.43;;
12848;SDS011;6493;50.928;7.172;2023-09-30T08:56:47;3.07;;;2.07;;
12848;SDS011;6493;50.928;7.172;2023-09-30T09:01:53;3.17;;;2.00;;
12848;SDS011;6493;50.928;7.172;2023-09-30T09:06:57;2.37;;;2.17;;
12848;SDS011;6493;50.928;7.172;2023-09-30T09:12:01;2.83;;;1.77;;
12848;SDS011;6493;50.928;7.172;2023-09-30T09:17:07;3.40;;;3.00;;
12848;SDS011;6493;50.928;7.172;2023-09-30T09:22:11;3.07;;;2.30;;
12848;SDS011;6493;50.928;7.172;2023-09-30T09:27:15;2.93;;;2.63;;
12848;SDS011;6493;50.928;7.172;2023-09-30T09:32:23;3.10;;;2.70;;
12848;SDS011;6493;50.928;7.172;2023-09-30T09:37:26;2.43;;;2.10;;
12848;SDS011;6493;50.928;7.172;2023-09-30T09:42:30;3.17;;;2.50;;
12848;SDS011;6493;50.928;7.172;2023-09-30T09:47:40;4.03;;;3.03;;
12848;SDS011;6493;50.928;7.172;2023-09-30T09:52:44;3.43;;;2.60;;
12848;SDS011;6493;50.928;7.172;2023-09-30T09:57:50;2.30;;;1.90;;
12848;SDS011;6493;50.928;7.172;2023-09-30T10:02:56;3.13;;;2.03;;
12848;SDS011;6493;50.928;7.172;2023-09-30T10:08:01;3.00;;;2.40;;
12848;SDS011;6493;50.928;7.172;2023-09-30T10:13:08;2.47;;;1.67;;
12848;SDS011;6493;50.928;7.172;2023-09-30T10:18:13;2.43;;;1.67;;
12848;SDS011;6493;50.928;7.172;2023-09-30T10:23:20;2.67;;;2.17;;
12848;SDS011;6493;50.928;7.172;2023-09-30T10:28:33;2.20;;;1.70;;
12848;SDS011;6493;50.928;7.172;2023-09-30T10:44:58;2.20;;;1.67;;
12848;SDS011;6493;50.928;7.172;2023-09-30T10:50:04;1.70;;;1.43;;
12848;SDS011;6493;50.928;7.172;2023-09-30T10:55:52;1.97;;;1.40;;
12848;SDS011;6493;50.928;7.172;2023-09-30T11:00:59;2.67;;;1.93;;
12848;SDS011;6493;50.928;7.172;2023-09-30T11:06:04;2.13;;;1.30;;
12848;SDS011;6493;50.928;7.172;2023-09-30T11:11:13;1.40;;;1.20;;
12848;SDS011;6493;50.928;7.172;2023-09-30T11:16:17;1.90;;;1.50;;
12848;SDS011;6493;50.928;7.172;2023-09-30T11:21:22;1.67;;;1.10;;
12848;SDS011;6493;50.928;7.172;2023-09-30T11:26:29;0.93;;;0.93;;
12848;SDS011;6493;50.928;7.172;2023-09-30T11:31:36;2.00;;;0.93;;
12848;SDS011;6493;50.928;7.172;2023-09-30T11:36:47;1.00;;;0.90;;
12848;SDS011;6493;50.928;7.172;2023-09-30T11:41:53;1.30;;;1.17;;
12848;SDS011;6493;50.928;7.172;2023-09-30T11:46:58;1.20;;;1.10;;
12848;SDS011;6493;50.928;7.172;2023-09-30T11:52:08;1.50;;;1.40;;
12848;SDS011;6493;50.928;7.172;2023-09-30T11:57:14;1.40;;;1.17;;
12848;SDS011;6493;50.928;7.172;2023-09-30T12:02:19;1.00;;;0.87;;
12848;SDS011;6493;50.928;7.172;2023-09-30T12:07:24;1.10;;;0.90;;
12848;SDS011;6493;50.928;7.172;2023-09-30T12:12:27;1.00;;;0.83;;
12848;SDS011;6493;50.928;7.172;2023-09-30T12:17:31;1.10;;;0.93;;
12848;SDS011;6493;50.928;7.172;2023-09-30T12:22:36;1.73;;;1.60;;
12848;SDS011;6493;50.928;7.172;2023-09-30T12:27:41;1.63;;;1.20;;
12848;SDS011;6493;50.928;7.172;2023-09-30T12:32:45;1.07;;;0.93;;
12848;SDS011;6493;50.928;7.172;2023-09-30T12:37:50;1.37;;;1.00;;
12848;SDS011;6493;50.928;7.172;2023-09-30T12:42:53;1.97;;;1.30;;
12848;SDS011;6493;50.928;7.172;2023-09-30T12:47:57;2.13;;;1.10;;
12848;SDS011;6493;50.928;7.172;2023-09-30T12:53:02;1.20;;;1.10;;
12848;SDS011;6493;50.928;7.172;2023-09-30T12:58:06;1.00;;;0.90;;
12848;SDS011;6493;50.928;7.172;2023-09-30T13:03:11;0.80;;;0.80;;
12848;SDS011;6493;50.928;7.172;2023-09-30T13:08:18;0.90;;;0.80;;
12848;SDS011;6493;50.928;7.172;2023-09-30T13:13:22;1.13;;;0.87;;
12848;SDS011;6493;50.928;7.172;2023-09-30T13:18:26;1.63;;;1.00;;
12848;SDS011;6493;50.928;7.172;2023-09-30T13:23:31;1.63;;;1.13;;
12848;SDS011;6493;50.928;7.172;2023-09-30T13:28:35;1.90;;;1.33;;
12848;SDS011;6493;50.928;7.172;2023-09-30T13:33:38;1.23;;;1.10;;
12848;SDS011;6493;50.928;7.172;2023-09-30T13:38:44;2.03;;;1.20;;
12848;SDS011;6493;50.928;7.172;2023-09-30T13:43:48;2.60;;;1.23;;
12848;SDS011;6493;50.928;7.172;2023-09-30T13:48:51;1.43;;;1.00;;
12848;SDS011;6493;50.928;7.172;2023-09-30T13:53:56;1.33;;;0.93;;
12848;SDS011;6493;50.928;7.172;2023-09-30T13:59:00;1.37;;;1.10;;
12848;SDS011;6493;50.928;7.172;2023-09-30T14:04:04;1.20;;;1.10;;
12848;SDS011;6493;50.928;7.172;2023-09-30T14:09:10;1.53;;;1.10;;
12848;SDS011;6493;50.928;7.172;2023-09-30T14:14:34;0.80;;;0.80;;
12848;SDS011;6493;50.928;7.172;2023-09-30T14:19:38;0.80;;;0.70;;
12848;SDS011;6493;50.928;7.172;2023-09-30T14:24:43;1.10;;;0.70;;
12848;SDS011;6493;50.928;7.172;2023-09-30T14:29:48;0.80;;;0.80;;
12848;SDS011;6493;50.928;7.172;2023-09-30T14:34:51;0.90;;;0.80;;
12848;SDS011;6493;50.928;7.172;2023-09-30T14:39:57;0.80;;;0.60;;
12848;SDS011;6493;50.928;7.172;2023-09-30T14:45:00;1.20;;;0.90;;
12848;SDS011;6493;50.928;7.172;2023-09-30T14:50:05;0.70;;;0.70;;
12848;SDS011;6493;50.928;7.172;2023-09-30T14:55:11;0.83;;;0.83;;
12848;SDS011;6493;50.928;7.172;2023-09-30T15:00:15;0.63;;;0.63;;
12848;SDS011;6493;50.928;7.172;2023-09-30T15:05:19;1.00;;;0.80;;
12848;SDS011;6493;50.928;7.172;2023-09-30T15:10:24;0.83;;;0.83;;
12848;SDS011;6493;50.928;7.172;2023-09-30T15:15:28;0.80;;;0.80;;
12848;SDS011;6493;50.928;7.172;2023-09-30T15:20:37;1.07;;;0.97;;
12848;SDS011;6493;50.928;7.172;2023-09-30T15:25:43;1.37;;;1.10;;
12848;SDS011;6493;50.928;7.172;2023-09-30T15:30:50;1.20;;;1.10;;
12848;SDS011;6493;50.928;7.172;2023-09-30T15:35:54;0.87;;;0.87;;
12848;SDS011;6493;50.928;7.172;2023-09-30T15:40:59;1.00;;;0.90;;
12848;SDS011;6493;50.928;7.172;2023-09-30T15:46:05;0.90;;;0.90;;
12848;SDS011;6493;50.928;7.172;2023-09-30T15:51:11;1.30;;;0.90;;
12848;SDS011;6493;50.928;7.172;2023-09-30T15:56:16;1.20;;;1.10;;
12848;SDS011;6493;50.928;7.172;2023-09-30T16:01:19;0.77;;;0.77;;
12848;SDS011;6493;50.928;7.172;2023-09-30T16:06:23;0.87;;;0.80;;
12848;SDS011;6493;50.928;7.172;2023-09-30T16:11:28;1.00;;;0.90;;
12848;SDS011;6493;50.928;7.172;2023-09-30T16:16:32;0.90;;;0.83;;
12848;SDS011;6493;50.928;7.172;2023-09-30T16:21:36;0.80;;;0.80;;
12848;SDS011;6493;50.928;7.172;2023-09-30T16:26:41;1.13;;;0.93;;
12848;SDS011;6493;50.928;7.172;2023-09-30T16:31:45;1.30;;;1.20;;
12848;SDS011;6493;50.928;7.172;2023-09-30T16:36:48;1.00;;;0.90;;
12848;SDS011;6493;50.928;7.172;2023-09-30T16:41:53;1.33;;;0.90;;
12848;SDS011;6493;50.928;7.172;2023-09-30T16:46:57;1.10;;;0.80;;
12848;SDS011;6493;50.928;7.172;2023-09-30T16:52:01;0.70;;;0.70;;
12848;SDS011;6493;50.928;7.172;2023-09-30T16:57:06;1.60;;;0.90;;
12848;SDS011;6493;50.928;7.172;2023-09-30T17:02:10;1.00;;;0.70;;
12848;SDS011;6493;50.928;7.172;2023-09-30T17:07:14;0.90;;;0.80;;
12848;SDS011;6493;50.928;7.172;2023-09-30T17:12:19;1.20;;;0.90;;
12848;SDS011;6493;50.928;7.172;2023-09-30T17:17:22;0.77;;;0.70;;
12848;SDS011;6493;50.928;7.172;2023-09-30T17:22:26;0.87;;;0.70;;
12848;SDS011;6493;50.928;7.172;2023-09-30T17:27:31;0.93;;;0.83;;
12848;SDS011;6493;50.928;7.172;2023-09-30T17:32:35;1.77;;;1.00;;
12848;SDS011;6493;50.928;7.172;2023-09-30T17:37:39;0.90;;;0.90;;
12848;SDS011;6493;50.928;7.172;2023-09-30T17:42:44;1.50;;;1.00;;
12848;SDS011;6493;50.928;7.172;2023-09-30T17:47:48;1.00;;;0.90;;
12848;SDS011;6493;50.928;7.172;2023-09-30T17:52:52;1.90;;;1.23;;
12848;SDS011;6493;50.928;7.172;2023-09-30T17:57:57;0.93;;;0.93;;
12848;SDS011;6493;50.928;7.172;2023-09-30T18:03:01;1.43;;;0.90;;
12848;SDS011;6493;50.928;7.172;2023-09-30T18:08:05;1.10;;;1.00;;
12848;SDS011;6493;50.928;7.172;2023-09-30T18:13:10;1.20;;;1.10;;
12848;SDS011;6493;50.928;7.172;2023-09-30T18:18:14;1.20;;;1.00;;
12848;SDS011;6493;50.928;7.172;2023-09-30T18:23:17;1.60;;;1.17;;
12848;SDS011;6493;50.928;7.172;2023-09-30T18:28:22;1.07;;;0.97;;
12848;SDS011;6493;50.928;7.172;2023-09-30T18:33:28;1.50;;;1.20;;
12848;SDS011;6493;50.928;7.172;2023-09-30T18:38:33;1.03;;;0.93;;
12848;SDS011;6493;50.928;7.172;2023-09-30T18:43:38;1.33;;;1.00;;
12848;SDS011;6493;50.928;7.172;2023-09-30T18:48:42;1.10;;;0.80;;
12848;SDS011;6493;50.928;7.172;2023-09-30T18:53:46;1.17;;;1.00;;
12848;SDS011;6493;50.928;7.172;2023-09-30T18:58:51;0.77;;;0.70;;
12848;SDS011;6493;50.928;7.172;2023-09-30T19:03:54;1.50;;;0.90;;
12848;SDS011;6493;50.928;7.172;2023-09-30T19:08:59;1.00;;;0.90;;
12848;SDS011;6493;50.928;7.172;2023-09-30T19:14:04;1.10;;;1.00;;
12848;SDS011;6493;50.928;7.172;2023-09-30T19:19:09;0.97;;;0.87;;
12848;SDS011;6493;50.928;7.172;2023-09-30T19:24:12;1.10;;;1.00;;
12848;SDS011;6493;50.928;7.172;2023-09-30T19:29:18;1.30;;;1.10;;
12848;SDS011;6493;50.928;7.172;2023-09-30T19:34:21;1.60;;;1.00;;
12848;SDS011;6493;50.928;7.172;2023-09-30T19:39:27;1.17;;;0.90;;
12848;SDS011;6493;50.928;7.172;2023-09-30T19:44:32;1.37;;;1.20;;
12848;SDS011;6493;50.928;7.172;2023-09-30T19:49:37;1.03;;;0.93;;
12848;SDS011;6493;50.928;7.172;2023-09-30T19:54:41;0.90;;;0.90;;
12848;SDS011;6493;50.928;7.172;2023-09-30T19:59:46;1.10;;;0.90;;
12848;SDS011;6493;50.928;7.172;2023-09-30T20:04:49;0.80;;;0.80;;
12848;SDS011;6493;50.928;7.172;2023-09-30T20:09:53;1.10;;;0.80;;
12848;SDS011;6493;50.928;7.172;2023-09-30T20:14:59;1.20;;;1.10;;
12848;SDS011;6493;50.928;7.172;2023-09-30T20:20:04;0.80;;;0.73;;
12848;SDS011;6493;50.928;7.172;2023-09-30T20:25:13;1.63;;;1.00;;
12848;SDS011;6493;50.928;7.172;2023-09-30T20:30:19;1.00;;;0.90;;
12848;SDS011;6493;50.928;7.172;2023-09-30T20:35:23;1.03;;;0.93;;
12848;SDS011;6493;50.928;7.172;2023-09-30T20:40:26;0.97;;;0.93;;
12848;SDS011;6493;50.928;7.172;2023-09-30T20:45:33;1.00;;;0.70;;
12848;SDS011;6493;50.928;7.172;2023-09-30T20:50:37;2.53;;;1.00;;
12848;SDS011;6493;50.928;7.172;2023-09-30T20:55:41;1.40;;;1.00;;
12848;SDS011;6493;50.928;7.172;2023-09-30T21:00:47;1.10;;;1.00;;
12848;SDS011;6493;50.928;7.172;2023-09-30T21:05:51;0.93;;;0.77;;
12848;SDS011;6493;50.928;7.172;2023-09-30T21:10:55;1.13;;;0.80;;
12848;SDS011;6493;50.928;7.172;2023-09-30T21:16:01;1.40;;;1.00;;
12848;SDS011;6493;50.928;7.172;2023-09-30T21:21:09;1.20;;;0.87;;
12848;SDS011;6493;50.928;7.172;2023-09-30T21:26:13;1.53;;;0.90;;
12848;SDS011;6493;50.928;7.172;2023-09-30T21:31:19;1.00;;;0.90;;
12848;SDS011;6493;50.928;7.172;2023-09-30T21:36:24;1.50;;;1.07;;
12848;SDS011;6493;50.928;7.172;2023-09-30T21:41:28;1.10;;;0.93;;
12848;SDS011;6493;50.928;7.172;2023-09-30T21:46:34;1.10;;;0.90;;
12848;SDS011;6493;50.928;7.172;2023-09-30T21:51:38;1.00;;;0.90;;
12848;SDS011;6493;50.928;7.172;2023-09-30T21:56:41;1.20;;;0.93;;
12848;SDS011;6493;50.928;7.172;2023-09-30T22:01:46;2.00;;;0.93;;
12848;SDS011;6493;50.928;7.172;2023-09-30T22:06:50;1.00;;;0.80;;
12848;SDS011;6493;50.928;7.172;2023-09-30T22:11:54;1.53;;;0.93;;
12848;SDS011;6493;50.928;7.172;2023-09-30T22:16:59;2.47;;;1.10;;
12848;SDS011;6493;50.928;7.172;2023-09-30T22:22:04;1.53;;;0.90;;
12848;SDS011;6493;50.928;7.172;2023-09-30T22:27:13;0.97;;;0.87;;
12848;SDS011;6493;50.928;7.172;2023-09-30T22:32:18;1.07;;;0.97;;
12848;SDS011;6493;50.928;7.172;2023-09-30T22:37:22;1.00;;;0.87;;
12848;SDS011;6493;50.928;7.172;2023-09-30T22:42:26;0.73;;;0.73;;
12848;SDS011;6493;50.928;7.172;2023-09-30T22:47:41;0.93;;;0.87;;
12848;SDS011;6493;50.928;7.172;2023-09-30T22:52:46;1.13;;;0.83;;
12848;SDS011;6493;50.928;7.172;2023-09-30T22:57:51;0.77;;;0.77;;
12848;SDS011;6493;50.928;7.172;2023-09-30T23:02:57;1.10;;;0.90;;
12848;SDS011;6493;50.928;7.172;2023-09-30T23:08:01;1.07;;;0.80;;
12848;SDS011;6493;50.928;7.172;2023-09-30T23:13:05;2.30;;;1.00;;
12848;SDS011;6493;50.928;7.172;2023-09-30T23:18:10;1.00;;;0.90;;
12848;SDS011;6493;50.928;7.172;2023-09-30T23:23:14;1.30;;;0.93;;
12848;SDS011;6493;50.928;7.172;2023-09-30T23:28:17;1.20;;;0.73;;
12848;SDS011;6493;50.928;7.172;2023-09-30T23:33:25;0.80;;;0.80;;
12848;SDS011;6493;50.928;7.172;2023-09-30T23:38:28;1.07;;;0.87;;
12848;SDS011;6493;50.928;7.172;2023-09-30T23:43:34;1.10;;;1.00;;
12848;SDS011;6493;50.928;7.172;2023-09-30T23:48:41;1.37;;;1.00;;
12848;SDS011;6493;50.928;7.172;2023-09-30T23:53:45;2.40;;;0.80;;
12848;SDS011;6493;50.928;7.172;2023-09-30T23:58:49;0.87;;;0.70;;
